Time;durP1;ratioP1;P1;durP2;ratioP2;P2;SDS_P1;SDS_P2;PMS_P1;PMS_P2;Temp;Humidity;BMP_temperature;BMP_pressure;BME280_temperature;BME280_humidity;BME280_pressure;Samples;Min_cycle;Max_cycle;Signal;HPM_P1;HPM_P2
2021/05/07 00:01:26;;;;;;;9.35;4.55;;;;;;;-141.50;100.00;63355.56;5069256;28;20411;-78
2021/05/07 00:03:52;;;;;;;8.80;4.60;;;;;;;-141.50;100.00;63355.56;5068381;28;20564;-77
2021/05/07 00:06:18;;;;;;;8.00;4.38;;;;;;;-141.50;100.00;63355.56;5068368;28;20045;-78
2021/05/07 00:08:44;;;;;;;7.65;4.80;;;;;;;-141.50;100.00;63355.56;5067867;28;20045;-76
2021/05/07 00:11:18;;;;;;;11.43;4.70;;;;;;;-141.50;100.00;63355.56;5069446;28;20053;-77
2021/05/07 00:13:47;;;;;;;8.82;4.75;;;;;;;-141.50;100.00;63355.56;5068955;28;20094;-78
2021/05/07 00:16:13;;;;;;;7.07;4.50;;;;;;;-141.50;100.00;63355.56;5075878;28;20042;-78
2021/05/07 00:18:39;;;;;;;8.27;5.30;;;;;;;-141.50;100.00;63355.56;5073730;28;20045;-77
2021/05/07 00:21:07;;;;;;;9.10;4.75;;;;;;;-141.50;100.00;63355.56;5073015;28;20041;-78
2021/05/07 00:23:35;;;;;;;10.70;5.43;;;;;;;-141.50;100.00;63355.56;5071792;28;20041;-77
2021/05/07 00:26:02;;;;;;;7.43;4.75;;;;;;;-141.50;100.00;63355.56;5074538;28;20044;-78
2021/05/07 00:28:28;;;;;;;8.98;5.00;;;;;;;-141.50;100.00;63355.56;5072245;28;20102;-79
2021/05/07 00:30:54;;;;;;;10.35;5.40;;;;;;;-141.50;100.00;63355.56;5074037;28;20289;-77
2021/05/07 00:33:20;;;;;;;10.70;5.50;;;;;;;-141.50;100.00;63355.56;5071973;28;20484;-78
2021/05/07 00:35:46;;;;;;;10.75;5.05;;;;;;;-141.50;100.00;63355.56;5072967;28;20041;-78
2021/05/07 00:38:14;;;;;;;8.35;5.30;;;;;;;-141.50;100.00;63355.56;5073670;28;20038;-77
2021/05/07 00:40:40;;;;;;;12.32;5.75;;;;;;;-141.50;100.00;63355.56;5073574;28;20048;-78
2021/05/07 00:43:06;;;;;;;11.13;6.28;;;;;;;-141.50;100.00;63355.56;5073737;28;20052;-78
2021/05/07 00:45:32;;;;;;;9.35;6.00;;;;;;;-141.50;100.00;63355.56;5073439;28;20118;-77
2021/05/07 00:48:13;;;;;;;9.88;6.18;;;;;;;-141.50;100.00;63355.56;5073654;28;20403;-78
2021/05/07 00:50:43;;;;;;;8.60;5.68;;;;;;;-141.50;100.00;63355.56;5072267;28;20055;-79
2021/05/07 00:53:10;;;;;;;9.88;5.82;;;;;;;-141.50;100.00;63355.56;5073706;28;20037;-78
2021/05/07 00:55:38;;;;;;;10.10;5.40;;;;;;;-141.50;100.00;63355.56;5073149;28;20059;-78
2021/05/07 00:58:04;;;;;;;10.13;5.50;;;;;;;-141.50;100.00;63355.56;5055898;28;20081;-77
2021/05/07 01:00:31;;;;;;;9.00;6.20;;;;;;;-141.50;100.00;63355.56;5072662;28;20048;-79
2021/05/07 01:02:59;;;;;;;10.73;5.57;;;;;;;-141.50;100.00;63355.56;5071249;28;20442;-77
2021/05/07 01:05:28;;;;;;;14.50;6.28;;;;;;;-141.50;100.00;63355.56;5071776;28;20040;-79
2021/05/07 01:07:54;;;;;;;9.43;5.55;;;;;;;-141.50;100.00;63355.56;5071895;28;20495;-78
2021/05/07 01:10:21;;;;;;;10.50;5.88;;;;;;;-141.50;100.00;63355.56;5073084;28;20043;-78
2021/05/07 01:12:47;;;;;;;10.68;6.20;;;;;;;-141.50;100.00;63355.56;5072770;28;20106;-78
2021/05/07 01:15:26;;;;;;;9.57;5.78;;;;;;;-141.50;100.00;63355.56;5070716;28;20044;-78
2021/05/07 01:17:54;;;;;;;10.63;6.50;;;;;;;-141.50;100.00;63355.56;5073493;28;20423;-78
2021/05/07 01:20:29;;;;;;;11.18;6.88;;;;;;;-141.50;100.00;63355.56;5071844;28;20041;-77
2021/05/07 01:23:04;;;;;;;14.17;7.23;;;;;;;-141.50;100.00;63355.56;5072874;28;20052;-78
2021/05/07 01:25:39;;;;;;;11.18;6.72;;;;;;;-141.50;100.00;63355.56;5071424;28;20415;-77
2021/05/07 01:28:07;;;;;;;11.40;7.73;;;;;;;-141.50;100.00;63355.56;5070686;28;20049;-78
2021/05/07 01:30:38;;;;;;;13.73;8.60;;;;;;;-141.50;100.00;63355.56;5071334;28;20054;-77
2021/05/07 01:33:05;;;;;;;14.38;8.65;;;;;;;-141.50;100.00;63355.56;5069329;28;20434;-78
2021/05/07 01:35:33;;;;;;;15.70;9.50;;;;;;;-141.50;100.00;63355.56;5068533;28;20044;-79
2021/05/07 01:38:04;;;;;;;14.32;9.88;;;;;;;-141.50;100.00;63355.56;5053420;28;20048;-79
2021/05/07 01:40:36;;;;;;;18.63;11.00;;;;;;;-141.50;100.00;63355.56;5070628;28;20052;-78
2021/05/07 01:43:03;;;;;;;20.63;11.48;;;;;;;-141.50;100.00;63355.56;5070482;28;20036;-78
2021/05/07 01:45:32;;;;;;;19.05;10.55;;;;;;;-141.50;100.00;63355.56;5071830;28;20044;-78
2021/05/07 01:47:58;;;;;;;19.02;10.40;;;;;;;-141.50;100.00;63355.56;5070338;28;20110;-78
2021/05/07 01:50:29;;;;;;;15.48;9.63;;;;;;;-141.50;100.00;63355.56;5069715;28;20108;-77
2021/05/07 01:52:56;;;;;;;17.35;9.57;;;;;;;-141.50;100.00;63355.56;5071315;28;20102;-78
2021/05/07 01:55:31;;;;;;;18.27;9.73;;;;;;;-141.50;100.00;63355.56;5071264;28;20045;-78
2021/05/07 01:57:59;;;;;;;14.95;9.13;;;;;;;-141.50;100.00;63355.56;5069681;28;20511;-78
2021/05/07 02:00:27;;;;;;;19.10;9.90;;;;;;;-141.50;100.00;63355.56;5069660;28;20459;-77
2021/05/07 02:02:57;;;;;;;15.63;9.75;;;;;;;-141.50;100.00;63355.56;5070362;28;20059;-77
2021/05/07 02:05:26;;;;;;;15.98;10.20;;;;;;;-141.50;100.00;63355.56;5071449;28;20040;-77
2021/05/07 02:07:52;;;;;;;18.65;11.00;;;;;;;-141.50;100.00;63355.56;5069813;28;20044;-77
2021/05/07 02:10:23;;;;;;;17.02;10.15;;;;;;;-141.50;100.00;63355.56;5071853;28;20044;-77
2021/05/07 02:12:54;;;;;;;17.98;10.82;;;;;;;-141.50;100.00;63355.56;5071200;28;20052;-77
2021/05/07 02:15:22;;;;;;;16.95;10.77;;;;;;;-141.50;100.00;63355.56;5079984;28;20032;-78
2021/05/07 02:17:48;;;;;;;19.00;10.80;;;;;;;-141.50;100.00;63355.56;5076179;28;20074;-77
2021/05/07 02:20:17;;;;;;;19.13;11.10;;;;;;;-141.50;100.00;63355.56;5075829;28;20037;-77
2021/05/07 02:22:47;;;;;;;16.98;11.38;;;;;;;-141.50;100.00;63355.56;5071951;28;20042;-78
2021/05/07 02:25:19;;;;;;;22.50;12.25;;;;;;;-141.50;100.00;63355.56;5070840;28;20488;-77
2021/05/07 02:27:46;;;;;;;26.38;13.60;;;;;;;-141.50;100.00;63355.56;5069648;28;20132;-78
2021/05/07 02:30:16;;;;;;;23.40;13.38;;;;;;;-141.50;100.00;63355.56;5070863;28;20500;-78
2021/05/07 02:32:42;;;;;;;21.85;13.02;;;;;;;-141.50;100.00;63355.56;5071123;28;20052;-77
2021/05/07 02:35:09;;;;;;;21.77;13.27;;;;;;;-141.50;100.00;63355.56;5069226;28;20040;-78
2021/05/07 02:37:35;;;;;;;23.48;13.32;;;;;;;-141.50;100.00;63355.56;5069278;28;20044;-77
2021/05/07 02:40:04;;;;;;;21.98;11.88;;;;;;;-141.50;100.00;63355.56;5070759;28;20036;-77
2021/05/07 02:42:31;;;;;;;21.70;12.40;;;;;;;-141.50;100.00;63355.56;5071900;28;20044;-79
2021/05/07 02:44:57;;;;;;;22.73;12.05;;;;;;;-141.50;100.00;63355.56;5072722;28;20044;-79
2021/05/07 02:47:23;;;;;;;18.48;10.27;;;;;;;-141.50;100.00;63355.56;5068692;28;20515;-77
2021/05/07 02:49:49;;;;;;;20.13;11.00;;;;;;;-141.50;100.00;63355.56;5068894;28;20048;-77
2021/05/07 02:52:15;;;;;;;15.90;10.88;;;;;;;-141.50;100.00;63355.56;5069857;28;20447;-78
2021/05/07 02:54:45;;;;;;;18.05;10.70;;;;;;;-141.50;100.00;63355.56;5069335;28;20051;-77
2021/05/07 02:57:11;;;;;;;19.95;11.07;;;;;;;-141.50;100.00;63355.56;5070725;28;20048;-78
2021/05/07 02:59:37;;;;;;;19.92;11.10;;;;;;;-141.50;100.00;63355.56;5070459;28;20045;-78
2021/05/07 03:02:03;;;;;;;21.15;11.52;;;;;;;-141.50;100.00;63355.56;5070857;28;20043;-77
2021/05/07 03:04:29;;;;;;;22.33;12.02;;;;;;;-141.50;100.00;63355.56;5078260;28;20047;-78
2021/05/07 03:06:55;;;;;;;23.17;12.43;;;;;;;-141.50;100.00;63355.56;5084229;28;20040;-77
2021/05/07 03:09:21;;;;;;;19.25;11.40;;;;;;;-141.50;100.00;63355.56;5070683;28;20055;-77
2021/05/07 03:11:47;;;;;;;21.42;11.70;;;;;;;-141.50;100.00;63355.56;5071357;28;20048;-78
2021/05/07 03:14:13;;;;;;;18.30;11.38;;;;;;;-141.50;100.00;63355.56;5070354;28;20048;-78
2021/05/07 03:16:40;;;;;;;21.23;11.93;;;;;;;-141.50;100.00;63355.56;5069292;28;20044;-77
2021/05/07 03:19:06;;;;;;;22.15;12.38;;;;;;;-141.50;100.00;63355.56;5069154;28;20048;-77
2021/05/07 03:21:33;;;;;;;22.75;11.80;;;;;;;-141.50;100.00;63355.56;5067292;28;20412;-78
2021/05/07 03:23:59;;;;;;;20.67;12.00;;;;;;;-141.50;100.00;63355.56;5070083;28;20048;-77
2021/05/07 03:26:25;;;;;;;20.75;11.75;;;;;;;-141.50;100.00;63355.56;5070146;28;20178;-78
2021/05/07 03:28:51;;;;;;;25.98;12.45;;;;;;;-141.50;100.00;63355.56;5088621;28;20051;-76
2021/05/07 03:31:17;;;;;;;23.27;12.65;;;;;;;-141.50;100.00;63355.56;5089511;28;20373;-77
2021/05/07 03:33:47;;;;;;;24.35;12.82;;;;;;;-141.50;100.00;63355.56;5089232;28;20073;-77
2021/05/07 03:36:14;;;;;;;24.33;12.88;;;;;;;-141.50;100.00;63355.56;5090376;28;20051;-76
2021/05/07 03:38:40;;;;;;;28.42;13.75;;;;;;;-141.50;100.00;63355.56;5088944;28;20044;-77
2021/05/07 03:41:06;;;;;;;22.83;13.07;;;;;;;-141.50;100.00;63355.56;5089487;28;20040;-77
2021/05/07 03:43:33;;;;;;;25.48;13.77;;;;;;;-141.50;100.00;63355.56;5088809;28;20043;-75
2021/05/07 03:45:59;;;;;;;31.60;15.70;;;;;;;-141.50;100.00;63355.56;5071742;28;20044;-78
2021/05/07 03:48:25;;;;;;;29.67;13.77;;;;;;;-141.50;100.00;63355.56;5088727;28;20048;-77
2021/05/07 03:50:52;;;;;;;26.48;14.50;;;;;;;-141.50;100.00;63355.56;5071254;28;20055;-78
2021/05/07 03:53:19;;;;;;;28.35;14.18;;;;;;;-141.50;100.00;63355.56;5091826;28;20044;-79
2021/05/07 03:55:45;;;;;;;21.63;13.15;;;;;;;-141.50;100.00;63355.56;5103420;28;20020;-77
2021/05/07 03:58:15;;;;;;;22.17;12.80;;;;;;;-141.50;100.00;63355.56;5105233;28;20040;-76
2021/05/07 04:00:41;;;;;;;32.10;13.30;;;;;;;-141.50;100.00;63355.56;5087149;28;20040;-76
2021/05/07 04:03:11;;;;;;;21.27;13.55;;;;;;;-141.50;100.00;63355.56;5088792;28;20340;-78
2021/05/07 04:05:37;;;;;;;25.98;13.55;;;;;;;-141.50;100.00;63355.56;5087622;28;20434;-77
2021/05/07 04:10:43;;;;;;;20.65;12.65;;;;;;;-141.50;100.00;63355.56;5089379;28;20048;-77
2021/05/07 04:15:39;;;;;;;22.25;13.77;;;;;;;-141.50;100.00;63355.56;5088834;28;20067;-77
2021/05/07 04:18:05;;;;;;;22.05;13.27;;;;;;;-141.50;100.00;63355.56;5087878;28;20044;-78
2021/05/07 04:20:31;;;;;;;22.45;13.73;;;;;;;-141.50;100.00;63355.56;5087968;28;20119;-77
2021/05/07 04:22:57;;;;;;;24.67;14.68;;;;;;;-141.50;100.00;63355.56;5087966;28;20097;-78
2021/05/07 04:25:23;;;;;;;25.73;14.18;;;;;;;-141.50;100.00;63355.56;5093599;28;20037;-79
2021/05/07 04:27:49;;;;;;;25.15;14.02;;;;;;;-141.50;100.00;63355.56;5093845;28;20068;-79
2021/05/07 04:30:16;;;;;;;22.73;13.10;;;;;;;-141.50;100.00;63355.56;5080056;28;20040;-78
2021/05/07 04:32:42;;;;;;;26.98;13.32;;;;;;;-141.50;100.00;63355.56;5067912;28;20059;-78
2021/05/07 04:35:09;;;;;;;23.48;12.88;;;;;;;-141.50;100.00;63355.56;5069634;28;20045;-79
2021/05/07 04:37:35;;;;;;;23.63;13.15;;;;;;;-141.50;100.00;63355.56;5068941;28;20044;-77
2021/05/07 04:40:02;;;;;;;24.40;13.55;;;;;;;-141.50;100.00;63355.56;5067594;28;20266;-77
2021/05/07 04:42:28;;;;;;;21.60;12.52;;;;;;;-141.50;100.00;63355.56;5070155;28;20041;-78
2021/05/07 04:44:59;;;;;;;23.88;12.75;;;;;;;-141.50;100.00;63355.56;5067156;28;20045;-76
2021/05/07 04:47:25;;;;;;;20.52;12.57;;;;;;;-141.50;100.00;63355.56;5051478;28;20045;-76
2021/05/07 04:49:51;;;;;;;22.73;12.15;;;;;;;-141.50;100.00;63355.56;5049312;28;20041;-76
2021/05/07 04:52:17;;;;;;;19.10;11.63;;;;;;;-141.50;100.00;63355.56;5088786;23;20025;-82
2021/05/07 04:54:44;;;;;;;23.35;13.15;;;;;;;-141.50;100.00;63355.56;5104099;28;20051;-82
2021/05/07 04:57:10;;;;;;;22.02;11.93;;;;;;;-141.50;100.00;63355.56;5083113;28;20066;-80
2021/05/07 04:59:36;;;;;;;18.42;10.95;;;;;;;-141.50;100.00;63355.56;5102512;28;20035;-82
2021/05/07 05:02:02;;;;;;;20.65;11.63;;;;;;;-141.50;100.00;63355.56;5116647;28;20042;-82
2021/05/07 05:04:29;;;;;;;21.30;11.85;;;;;;;-141.50;100.00;63355.56;5103688;28;20153;-80
2021/05/07 05:06:55;;;;;;;24.67;12.77;;;;;;;-141.50;100.00;63355.56;5128330;28;20050;-81
2021/05/07 05:09:21;;;;;;;23.13;13.35;;;;;;;-141.50;100.00;63355.56;5110917;28;20053;-81
2021/05/07 05:11:48;;;;;;;20.35;12.23;;;;;;;-141.50;100.00;63355.56;5131121;28;20063;-80
2021/05/07 05:14:14;;;;;;;23.75;14.02;;;;;;;-141.50;100.00;63355.56;5130057;28;20039;-80
2021/05/07 05:16:40;;;;;;;30.02;13.45;;;;;;;-141.50;100.00;63355.56;5111788;28;20495;-80
2021/05/07 05:19:06;;;;;;;21.13;13.10;;;;;;;-141.50;100.00;63355.56;5118734;28;20039;-81
2021/05/07 05:21:32;;;;;;;24.45;13.68;;;;;;;-141.50;100.00;63355.56;5115881;28;20050;-81
2021/05/07 05:24:00;;;;;;;19.73;12.55;;;;;;;-141.50;100.00;63355.56;5115165;28;20035;-82
2021/05/07 05:26:26;;;;;;;14.68;9.55;;;;;;;-141.50;100.00;63355.56;5097270;28;20078;-81
2021/05/07 05:28:52;;;;;;;17.10;10.82;;;;;;;-141.50;100.00;63355.56;5114323;28;20044;-80
2021/05/07 05:31:18;;;;;;;21.83;12.13;;;;;;;-141.50;100.00;63355.56;5097810;28;20058;-79
2021/05/07 05:33:44;;;;;;;21.23;11.48;;;;;;;-141.50;100.00;63355.56;5118149;28;20050;-81
2021/05/07 05:36:11;;;;;;;16.10;10.70;;;;;;;-141.50;100.00;63355.56;5095963;28;20059;-80
2021/05/07 05:38:37;;;;;;;15.45;9.10;;;;;;;-141.50;100.00;63355.56;5112427;28;20116;-79
2021/05/07 05:41:03;;;;;;;14.77;9.80;;;;;;;-141.50;100.00;63355.56;5095455;28;20044;-81
2021/05/07 05:43:29;;;;;;;15.82;10.20;;;;;;;-141.50;100.00;63355.56;5115004;28;20395;-79
2021/05/07 05:45:55;;;;;;;17.10;10.40;;;;;;;-141.50;100.00;63355.56;5113705;28;20050;-78
2021/05/07 05:48:23;;;;;;;16.33;9.88;;;;;;;-141.50;100.00;63355.56;5096471;28;20036;-82
2021/05/07 05:50:52;;;;;;;18.20;10.20;;;;;;;-141.50;100.00;63355.56;5096744;28;20055;-81
2021/05/07 05:53:18;;;;;;;15.23;9.55;;;;;;;-141.50;100.00;63355.56;5115263;28;20115;-80
2021/05/07 05:55:45;;;;;;;14.82;9.60;;;;;;;-141.50;100.00;63355.56;5116301;28;20050;-80
2021/05/07 05:58:11;;;;;;;17.17;10.70;;;;;;;-141.50;100.00;63355.56;5096855;28;20047;-79
2021/05/07 06:00:38;;;;;;;21.60;11.40;;;;;;;-141.50;100.00;63355.56;5114855;28;20051;-81
2021/05/07 06:03:04;;;;;;;17.88;11.75;;;;;;;-141.50;100.00;63355.56;5115110;28;20328;-79
2021/05/07 06:05:31;;;;;;;21.27;11.65;;;;;;;-141.50;100.00;63355.56;5113145;28;20062;-80
2021/05/07 06:07:57;;;;;;;20.25;12.68;;;;;;;-141.50;100.00;63355.56;5113731;28;20047;-80
2021/05/07 06:10:26;;;;;;;19.85;12.35;;;;;;;-141.50;100.00;63355.56;5113132;28;20047;-79
2021/05/07 06:12:55;;;;;;;20.25;12.05;;;;;;;-141.50;100.00;63355.56;5089715;28;20043;-79
2021/05/07 06:15:21;;;;;;;20.50;12.68;;;;;;;-141.50;100.00;63355.56;5092292;28;20051;-80
2021/05/07 06:17:47;;;;;;;21.00;12.93;;;;;;;-141.50;100.00;63355.56;5112952;28;20043;-79
2021/05/07 06:20:16;;;;;;;18.23;11.60;;;;;;;-141.50;100.00;63355.56;5114342;28;20044;-79
2021/05/07 06:22:43;;;;;;;19.70;11.57;;;;;;;-141.50;100.00;63355.56;5082929;28;20095;-81
2021/05/07 06:25:12;;;;;;;19.70;11.52;;;;;;;-141.50;100.00;63355.56;5080392;28;20048;-78
2021/05/07 06:27:38;;;;;;;16.92;10.88;;;;;;;-141.50;100.00;63355.56;5113383;28;20462;-79
2021/05/07 06:30:10;;;;;;;17.00;11.60;;;;;;;-141.50;100.00;63355.56;5113818;28;20052;-80
2021/05/07 06:32:36;;;;;;;16.98;10.63;;;;;;;-141.50;100.00;63355.56;5113833;28;20050;-79
2021/05/07 06:35:07;;;;;;;15.07;9.93;;;;;;;-141.50;100.00;63355.56;5117284;28;20136;-79
2021/05/07 06:37:33;;;;;;;19.00;10.48;;;;;;;-141.50;100.00;63355.56;5100033;28;20035;-81
2021/05/07 06:39:59;;;;;;;17.25;10.05;;;;;;;-141.50;100.00;63355.56;5116711;28;20047;-79
2021/05/07 06:42:26;;;;;;;15.95;10.00;;;;;;;-141.50;100.00;63355.56;5116348;28;20848;-80
2021/05/07 06:44:52;;;;;;;14.05;9.15;;;;;;;-141.50;100.00;63355.56;5116954;28;20042;-80
2021/05/07 06:47:18;;;;;;;12.20;8.70;;;;;;;-141.50;100.00;63355.56;5115731;28;20040;-79
2021/05/07 06:49:45;;;;;;;12.27;8.25;;;;;;;-141.50;100.00;63355.56;5100999;28;20052;-80
2021/05/07 06:52:11;;;;;;;11.60;8.38;;;;;;;-141.50;100.00;63355.56;5116121;28;20043;-80
2021/05/07 06:54:39;;;;;;;12.15;8.48;;;;;;;-141.50;100.00;63355.56;5099145;28;20110;-80
2021/05/07 06:57:05;;;;;;;14.00;7.80;;;;;;;-141.50;100.00;63355.56;5115883;28;20058;-80
2021/05/07 06:59:32;;;;;;;12.85;8.23;;;;;;;-141.50;100.00;63355.56;5115707;28;20043;-79
2021/05/07 07:02:00;;;;;;;12.55;8.38;;;;;;;-141.50;100.00;63355.56;5115146;28;20338;-80
2021/05/07 07:04:26;;;;;;;13.10;8.23;;;;;;;-141.50;100.00;63355.56;5097214;28;20052;-80
2021/05/07 07:06:53;;;;;;;12.52;8.65;;;;;;;-141.50;100.00;63355.56;5116046;28;20056;-77
2021/05/07 07:09:20;;;;;;;13.10;8.23;;;;;;;-141.50;100.00;63355.56;5115790;28;20118;-80
2021/05/07 07:11:52;;;;;;;9.52;6.38;;;;;;;-141.50;100.00;63355.56;5116411;28;20046;-80
2021/05/07 07:14:18;;;;;;;10.13;7.10;;;;;;;-141.50;100.00;63355.56;5114171;28;20053;-80
2021/05/07 07:16:44;;;;;;;11.55;7.57;;;;;;;-141.50;100.00;63355.56;5120280;28;20083;-81
2021/05/07 07:19:10;;;;;;;11.45;8.05;;;;;;;-141.50;100.00;63355.56;5102490;28;20048;-78
2021/05/07 07:21:56;;;;;;;;;;;;;;;-141.50;100.00;63355.56;5117984;28;20124;-78
2021/05/07 07:24:23;;;;;;;7.20;4.63;;;;;;;-141.50;100.00;63355.56;5118679;28;19930;-80
2021/05/07 07:26:49;;;;;;;8.32;5.70;;;;;;;-141.50;100.00;63355.56;5099700;28;20044;-80
2021/05/07 07:29:17;;;;;;;7.78;5.03;;;;;;;-141.50;100.00;63355.56;5114208;28;20134;-79
2021/05/07 07:31:46;;;;;;;8.63;6.15;;;;;;;-141.50;100.00;63355.56;5114820;28;20043;-80
2021/05/07 07:34:12;;;;;;;9.05;4.95;;;;;;;-141.50;100.00;63355.56;5113701;28;20063;-80
2021/05/07 07:36:38;;;;;;;8.32;4.63;;;;;;;-141.50;100.00;63355.56;5114715;28;20065;-79
2021/05/07 07:39:06;;;;;;;6.88;4.43;;;;;;;-141.50;100.00;63355.56;5101607;28;20044;-80
2021/05/07 07:41:32;;;;;;;6.43;4.70;;;;;;;-141.50;100.00;63355.56;5096073;28;20464;-78
2021/05/07 07:43:58;;;;;;;6.28;4.38;;;;;;;-141.50;100.00;63355.56;5114508;28;20043;-78
2021/05/07 07:46:24;;;;;;;6.25;4.68;;;;;;;-141.50;100.00;63355.56;5098564;28;20040;-81
2021/05/07 07:48:52;;;;;;;6.72;4.50;;;;;;;-141.50;100.00;63355.56;5093691;28;20048;-80
2021/05/07 07:51:22;;;;;;;6.88;4.60;;;;;;;-141.50;100.00;63355.56;5099125;28;20044;-80
2021/05/07 07:53:48;;;;;;;5.40;4.10;;;;;;;-141.50;100.00;63355.56;5089892;28;20039;-78
2021/05/07 07:56:14;;;;;;;6.82;4.50;;;;;;;-141.50;100.00;63355.56;5093041;28;20051;-80
2021/05/07 07:58:40;;;;;;;5.80;3.80;;;;;;;-141.50;100.00;63355.56;5086806;28;20403;-78
2021/05/07 08:01:06;;;;;;;5.40;3.97;;;;;;;-141.50;100.00;63355.56;5103368;28;20043;-77
2021/05/07 08:03:32;;;;;;;7.90;3.92;;;;;;;-141.50;100.00;63355.56;5099196;28;20430;-77
2021/05/07 08:05:58;;;;;;;7.55;5.10;;;;;;;-141.50;100.00;63355.56;5104609;28;20047;-77
2021/05/07 08:08:25;;;;;;;6.25;4.20;;;;;;;-141.50;100.00;63355.56;5103394;28;20036;-77
2021/05/07 08:10:51;;;;;;;5.70;4.10;;;;;;;-141.50;100.00;63355.56;5099031;28;20339;-77
2021/05/07 08:13:18;;;;;;;5.57;4.18;;;;;;;-141.50;100.00;63355.56;5099803;28;20270;-77
2021/05/07 08:15:44;;;;;;;5.93;4.40;;;;;;;-141.50;100.00;63355.56;5101032;28;20044;-76
2021/05/07 08:18:10;;;;;;;7.00;4.75;;;;;;;-141.50;100.00;63355.56;5095433;28;20066;-77
2021/05/07 08:20:37;;;;;;;8.48;4.55;;;;;;;-141.50;100.00;63355.56;5112743;28;20043;-77
2021/05/07 08:23:04;;;;;;;6.05;4.32;;;;;;;-141.50;100.00;63355.56;5113214;28;20046;-77
2021/05/07 08:25:30;;;;;;;5.82;4.20;;;;;;;-141.50;100.00;63355.56;5110723;28;20517;-76
2021/05/07 08:27:58;;;;;;;6.65;4.00;;;;;;;-141.50;100.00;63355.56;5093078;28;20559;-76
2021/05/07 08:30:24;;;;;;;4.47;3.30;;;;;;;-141.50;100.00;63355.56;5110648;28;20118;-77
2021/05/07 08:32:51;;;;;;;5.95;3.10;;;;;;;-141.50;100.00;63355.56;5094127;28;20048;-77
2021/05/07 08:35:18;;;;;;;3.58;2.13;;;;;;;-141.50;100.00;63355.56;5113408;28;20060;-77
2021/05/07 08:37:44;;;;;;;4.55;2.85;;;;;;;-141.50;100.00;63355.56;5111052;28;20043;-78
2021/05/07 08:40:14;;;;;;;3.42;2.20;;;;;;;-141.50;100.00;63355.56;5110616;28;20066;-78
2021/05/07 08:42:40;;;;;;;4.72;2.33;;;;;;;-141.50;100.00;63355.56;5111866;28;20462;-78
2021/05/07 08:45:07;;;;;;;4.10;2.80;;;;;;;-141.50;100.00;63355.56;5113652;28;20050;-78
2021/05/07 08:47:34;;;;;;;3.83;2.50;;;;;;;-141.50;100.00;63355.56;5093784;28;20044;-78
2021/05/07 08:50:05;;;;;;;3.53;2.47;;;;;;;-141.50;100.00;63355.56;5092364;28;20409;-78
2021/05/07 08:52:32;;;;;;;3.22;2.33;;;;;;;-141.50;100.00;63355.56;5094049;28;20051;-79
2021/05/07 08:54:58;;;;;;;2.85;2.05;;;;;;;-141.50;100.00;63355.56;5077864;28;20518;-78
2021/05/07 08:57:25;;;;;;;3.55;1.92;;;;;;;-141.50;100.00;63355.56;5095540;28;20522;-80
2021/05/07 08:59:51;;;;;;;3.25;2.15;;;;;;;-141.50;100.00;63355.56;5078784;28;20138;-80
2021/05/07 09:02:26;;;;;;;3.35;2.38;;;;;;;-141.50;100.00;63355.56;5095710;28;20051;-79
2021/05/07 09:04:53;;;;;;;3.88;2.55;;;;;;;-141.50;100.00;63355.56;5077415;28;20119;-80
2021/05/07 09:07:19;;;;;;;8.85;4.55;;;;;;;-141.50;100.00;63355.56;5079730;28;20046;-78
2021/05/07 09:09:54;;;;;;;8.05;4.72;;;;;;;-141.50;100.00;63355.56;5098765;28;20068;-80
2021/05/07 09:12:39;;;;;;;5.60;2.95;;;;;;;-141.50;100.00;63355.56;5081919;28;20115;-79
2021/05/07 09:15:07;;;;;;;5.38;2.97;;;;;;;-141.50;100.00;63355.56;5097120;28;20046;-79
2021/05/07 09:17:38;;;;;;;3.72;2.63;;;;;;;-141.50;100.00;63355.56;5078737;28;20484;-80
2021/05/07 09:20:11;;;;;;;25.50;13.23;;;;;;;-141.50;100.00;63355.56;5106443;28;20044;-77
2021/05/07 09:22:43;;;;;;;5.03;3.30;;;;;;;-141.50;100.00;63355.56;5098808;28;20070;-79
2021/05/07 09:25:17;;;;;;;4.22;3.25;;;;;;;-141.50;100.00;63355.56;5096780;28;20044;-80
2021/05/07 09:27:44;;;;;;;4.10;2.90;;;;;;;-141.50;100.00;63355.56;5098093;28;20465;-78
2021/05/07 09:30:29;;;;;;;4.68;2.92;;;;;;;-141.50;100.00;63355.56;5103510;28;20309;-78
2021/05/07 09:32:55;;;;;;;5.38;3.50;;;;;;;-141.50;100.00;63355.56;5112740;28;20115;-79
2021/05/07 09:35:30;;;;;;;5.45;3.70;;;;;;;-141.50;100.00;63355.56;5093634;28;20032;-77
2021/05/07 09:38:05;;;;;;;44.53;17.50;;;;;;;-141.50;100.00;63355.56;5067696;28;20044;-79
2021/05/07 09:40:33;;;;;;;30.80;13.30;;;;;;;-141.50;100.00;63355.56;5060596;28;20040;-78
2021/05/07 09:43:09;;;;;;;25.67;12.95;;;;;;;-141.50;100.00;63355.56;5080787;28;20036;-79
2021/05/07 09:45:38;;;;;;;6.95;3.72;;;;;;;-141.50;100.00;63355.56;5102036;28;20151;-79
2021/05/07 09:48:19;;;;;;;5.28;3.78;;;;;;;-141.50;100.00;63355.56;5102488;28;20289;-78
2021/05/07 09:50:46;;;;;;;7.82;4.18;;;;;;;-141.50;100.00;63355.56;5090434;28;20463;-78
2021/05/07 09:53:20;;;;;;;7.03;4.22;;;;;;;-141.50;100.00;63355.56;5109119;28;20449;-80
2021/05/07 09:55:49;;;;;;;7.45;4.43;;;;;;;-141.50;100.00;63355.56;5107744;28;20046;-79
2021/05/07 09:58:16;;;;;;;5.55;3.58;;;;;;;-141.50;100.00;63355.56;5110537;28;20400;-80
2021/05/07 10:00:45;;;;;;;7.13;3.78;;;;;;;-141.50;100.00;63355.56;5109111;28;20131;-79
2021/05/07 10:03:11;;;;;;;5.28;3.60;;;;;;;-141.50;100.00;63355.56;5108654;28;20043;-78
2021/05/07 10:05:37;;;;;;;5.20;3.72;;;;;;;-141.50;100.00;63355.56;5108724;28;20051;-79
2021/05/07 10:08:07;;;;;;;6.22;3.75;;;;;;;-141.50;100.00;63355.56;5121412;28;20036;-80
2021/05/07 10:10:37;;;;;;;6.15;3.55;;;;;;;-141.50;100.00;63355.56;5120676;28;20052;-78
2021/05/07 10:13:07;;;;;;;7.88;3.85;;;;;;;-141.50;100.00;63355.56;5119742;28;20039;-77
2021/05/07 10:15:36;;;;;;;6.75;3.80;;;;;;;-141.50;100.00;63355.56;5120946;28;20047;-79
2021/05/07 10:18:24;;;;;;;4.80;3.33;;;;;;;-141.50;100.00;63355.56;5123246;28;20425;-78
2021/05/07 10:21:20;;;;;;;5.57;3.40;;;;;;;-141.50;100.00;63355.56;5120849;28;20054;-79
2021/05/07 10:23:50;;;;;;;;;;;;;;;-141.50;100.00;63355.56;5101427;28;20055;-81
2021/05/07 10:26:17;;;;;;;5.78;3.58;;;;;;;-141.50;100.00;63355.56;5104190;28;19924;-80
2021/05/07 10:28:52;;;;;;;16.05;6.53;;;;;;;-141.50;100.00;63355.56;5125728;28;20047;-78
2021/05/07 10:31:21;;;;;;;60.20;31.83;;;;;;;-141.50;100.00;63355.56;5120073;28;20486;-77
2021/05/07 10:34:06;;;;;;;12.38;9.45;;;;;;;-141.50;100.00;63355.56;5117161;28;20078;-79
2021/05/07 10:36:55;;;;;;;3.90;2.88;;;;;;;-141.50;100.00;63355.56;5117117;28;20135;-81
2021/05/07 10:39:21;;;;;;;4.53;3.13;;;;;;;-141.50;100.00;63355.56;5101764;28;20036;-79
2021/05/07 10:41:49;;;;;;;5.05;3.28;;;;;;;-141.50;100.00;63355.56;5079689;22;20052;-79
2021/05/07 10:44:16;;;;;;;4.20;2.85;;;;;;;-141.50;100.00;63355.56;5049921;28;20055;-79
2021/05/07 10:46:43;;;;;;;6.05;3.50;;;;;;;-141.50;100.00;63355.56;5032355;28;20045;-79
2021/05/07 10:49:10;;;;;;;5.03;2.83;;;;;;;-141.50;100.00;63355.56;5016387;28;20049;-80
2021/05/07 10:51:37;;;;;;;6.88;3.30;;;;;;;-141.50;100.00;63355.56;5034100;28;20128;-79
2021/05/07 10:54:14;;;;;;;10.13;3.75;;;;;;;-141.50;100.00;63355.56;5031022;28;20053;-79
2021/05/07 10:56:42;;;;;;;6.95;3.95;;;;;;;-141.50;100.00;63355.56;5032124;28;20300;-79
2021/05/07 10:59:19;;;;;;;7.03;4.13;;;;;;;-141.50;100.00;63355.56;5032776;28;20045;-79
2021/05/07 11:02:15;;;;;;;9.10;4.68;;;;;;;-141.50;100.00;63355.56;5032963;28;20057;-79
2021/05/07 11:04:44;;;;;;;5.93;4.05;;;;;;;-141.50;100.00;63355.56;5039681;28;20417;-79
2021/05/07 11:07:10;;;;;;;7.45;4.38;;;;;;;-141.50;100.00;63355.56;5044091;28;20041;-80
2021/05/07 11:09:36;;;;;;;6.47;4.63;;;;;;;-141.50;100.00;63355.56;5041064;28;20052;-79
2021/05/07 11:12:04;;;;;;;6.75;4.28;;;;;;;-141.50;100.00;63355.56;5034012;28;20049;-80